Time;durP1;ratioP1;P1;durP2;ratioP2;P2;SDS_P1;SDS_P2;PMS_P1;PMS_P2;Temp;Humidity;BMP_temperature;BMP_pressure;BME280_temperature;BME280_humidity;BME280_pressure;Samples;Min_cycle;Max_cycle;Signal;HPM_P1;HPM_P2
2023/04/25 00:00:48;;;;;;;17.97;7.50;;;;;;;5.60;100.00;100031.59;7388529;19;20444;-37
2023/04/25 00:03:19;;;;;;;15.83;5.30;;;;;;;5.63;100.00;100032.63;7391009;19;20427;-37
2023/04/25 00:05:50;;;;;;;26.10;7.17;;;;;;;5.61;100.00;100041.91;7390124;19;20399;-37
2023/04/25 00:08:20;;;;;;;23.00;7.47;;;;;;;5.59;100.00;100034.94;7391015;19;20404;-35
2023/04/25 00:10:49;;;;;;;16.00;6.07;;;;;;;5.52;100.00;100041.41;7387422;19;20436;-37
2023/04/25 00:13:20;;;;;;;29.87;5.30;;;;;;;5.39;100.00;100037.38;7391163;19;20419;-37
2023/04/25 00:15:52;;;;;;;18.40;4.70;;;;;;;5.36;100.00;100021.84;7387544;19;20403;-36
2023/04/25 00:18:22;;;;;;;14.93;4.40;;;;;;;5.35;100.00;100026.13;7391305;19;20391;-36
2023/04/25 00:20:52;;;;;;;21.07;4.77;;;;;;;5.31;100.00;100024.19;7388920;19;20399;-37
2023/04/25 00:23:22;;;;;;;18.00;4.53;;;;;;;5.30;100.00;100031.78;7391213;19;20423;-36
2023/04/25 00:25:52;;;;;;;28.67;4.43;;;;;;;5.27;100.00;100041.06;7386622;19;20445;-36
2023/04/25 00:28:22;;;;;;;17.70;4.70;;;;;;;5.27;100.00;100068.31;7390299;19;20403;-35
2023/04/25 00:30:54;;;;;;;15.47;4.60;;;;;;;5.27;100.00;100086.22;7388658;19;21202;-36
2023/04/25 00:33:24;;;;;;;19.33;4.63;;;;;;;5.30;100.00;100113.63;7391927;19;20750;-36
2023/04/25 00:35:56;;;;;;;16.87;4.40;;;;;;;5.28;100.00;100118.66;7388153;19;20423;-36
2023/04/25 00:38:25;;;;;;;16.10;4.07;;;;;;;5.28;100.00;100123.78;7390688;19;20416;-37
2023/04/25 00:40:55;;;;;;;17.00;4.33;;;;;;;5.25;100.00;100138.97;7381909;19;20912;-36
2023/04/25 00:43:25;;;;;;;14.33;4.10;;;;;;;5.18;100.00;100150.53;7391356;19;20444;-35
2023/04/25 00:45:57;;;;;;;15.77;4.53;;;;;;;5.16;100.00;100149.59;7389422;19;20774;-37
2023/04/25 00:48:27;;;;;;;21.77;4.63;;;;;;;5.13;100.00;100172.47;7396616;19;20419;-40
2023/04/25 00:50:57;;;;;;;19.27;4.37;;;;;;;5.12;100.00;100170.66;7389272;19;20513;-35
2023/04/25 00:53:29;;;;;;;22.80;4.23;;;;;;;5.13;100.00;100167.34;7392090;19;20439;-36
2023/04/25 00:55:59;;;;;;;20.83;3.83;;;;;;;5.09;100.00;100175.63;7388965;19;20439;-35
2023/04/25 00:58:28;;;;;;;14.83;4.30;;;;;;;5.10;100.00;100182.50;7391567;19;20390;-36
2023/04/25 01:01:02;;;;;;;21.77;3.60;;;;;;;5.06;100.00;100185.69;7387563;19;20415;-36
2023/04/25 01:03:35;;;;;;;12.53;3.20;;;;;;;5.04;100.00;100192.41;7390681;19;20419;-39
2023/04/25 01:06:06;;;;;;;19.87;4.20;;;;;;;5.04;100.00;100187.28;7390618;19;20433;-36
2023/04/25 01:08:35;;;;;;;17.70;3.50;;;;;;;4.98;100.00;100198.94;7391611;19;20756;-36
2023/04/25 01:11:05;;;;;;;25.60;4.07;;;;;;;4.96;100.00;100200.53;7387114;19;20440;-35
2023/04/25 01:13:35;;;;;;;17.93;3.40;;;;;;;4.93;100.00;100205.47;7389884;19;20993;-35
2023/04/25 01:16:08;;;;;;;12.63;3.90;;;;;;;4.95;100.00;100214.13;7388323;19;20416;-37
2023/04/25 01:18:38;;;;;;;22.10;4.50;;;;;;;4.85;100.00;100225.50;7391457;19;20459;-36
2023/04/25 01:21:13;;;;;;;36.77;4.20;;;;;;;4.83;100.00;100221.97;7388729;19;20411;-36
2023/04/25 01:23:44;;;;;;;19.97;3.33;;;;;;;4.77;100.00;100228.41;7390230;19;20431;-36
2023/04/25 01:26:14;;;;;;;31.03;4.50;;;;;;;4.78;100.00;100231.06;7388773;19;20423;-36
2023/04/25 01:28:43;;;;;;;17.87;3.90;;;;;;;4.80;100.00;100239.69;7391807;19;21255;-38
2023/04/25 01:31:14;;;;;;;24.50;4.20;;;;;;;4.78;100.00;100241.28;7385119;19;20427;-35
2023/04/25 01:33:43;;;;;;;25.53;4.10;;;;;;;4.80;100.00;100249.03;7390080;19;20830;-36
2023/04/25 01:36:16;;;;;;;16.70;4.40;;;;;;;4.80;100.00;100249.03;7390354;19;21006;-36
2023/04/25 01:38:47;;;;;;;23.97;5.43;;;;;;;4.77;100.00;100253.97;7395404;19;20406;-44
2023/04/25 01:41:17;;;;;;;29.00;5.23;;;;;;;4.75;100.00;100255.53;7387995;19;20415;-36
2023/04/25 01:43:47;;;;;;;17.57;3.80;;;;;;;4.66;100.00;100251.69;7390349;19;20447;-37
2023/04/25 01:46:17;;;;;;;24.73;4.33;;;;;;;4.65;100.00;100260.13;7388951;19;20436;-36
2023/04/25 01:48:47;;;;;;;36.27;5.67;;;;;;;4.61;100.00;100263.31;7392456;19;20400;-36
2023/04/25 01:51:20;;;;;;;18.00;4.03;;;;;;;4.58;100.00;100271.66;7388020;19;20766;-36
2023/04/25 01:53:49;;;;;;;21.87;4.60;;;;;;;4.58;100.00;100271.66;7389817;19;21334;-37
2023/04/25 01:56:21;;;;;;;18.90;3.47;;;;;;;4.49;100.00;100272.81;7388714;19;20858;-37
2023/04/25 01:58:51;;;;;;;16.90;3.80;;;;;;;4.43;100.00;100274.22;7389392;19;20402;-35
2023/04/25 02:01:20;;;;;;;24.00;4.30;;;;;;;4.39;100.00;100284.16;7387783;19;20778;-36
2023/04/25 02:03:50;;;;;;;21.87;4.73;;;;;;;4.36;100.00;100292.50;7389820;19;20419;-36
2023/04/25 02:06:23;;;;;;;18.57;3.83;;;;;;;4.33;100.00;100307.69;7389604;19;20426;-36
2023/04/25 02:08:52;;;;;;;20.93;4.17;;;;;;;4.31;100.00;100312.69;7389520;19;20975;-36
2023/04/25 02:11:22;;;;;;;23.27;4.27;;;;;;;4.29;100.00;100323.59;7387485;19;20407;-36
2023/04/25 02:13:51;;;;;;;23.97;4.60;;;;;;;4.29;100.00;100332.16;7389808;19;20555;-35
2023/04/25 02:16:21;;;;;;;18.60;3.80;;;;;;;4.26;100.00;100333.66;7387757;19;20433;-37
2023/04/25 02:18:54;;;;;;;15.73;3.43;;;;;;;4.27;100.00;100333.75;7389594;19;20392;-36
2023/04/25 02:21:27;;;;;;;22.47;3.80;;;;;;;4.24;100.00;100342.88;7387194;19;20411;-35
2023/04/25 02:23:56;;;;;;;11.87;3.70;;;;;;;4.20;100.00;100349.47;7393560;19;20820;-37
2023/04/25 02:26:26;;;;;;;23.77;3.83;;;;;;;4.17;100.00;100359.50;7394664;19;20423;-35
2023/04/25 02:28:56;;;;;;;17.87;3.23;;;;;;;4.16;100.00;100347.53;7399720;19;20374;-37
2023/04/25 02:31:26;;;;;;;15.37;3.70;;;;;;;4.17;100.00;100370.59;7397817;19;20467;-39
2023/04/25 02:33:56;;;;;;;27.10;3.73;;;;;;;4.16;100.00;100366.28;7396128;19;20432;-36
2023/04/25 02:36:30;;;;;;;22.50;4.03;;;;;;;4.18;100.00;100362.16;7393023;19;20418;-36
2023/04/25 02:39:00;;;;;;;37.50;3.80;;;;;;;4.19;100.00;100363.03;7398513;19;20974;-37
2023/04/25 02:41:29;;;;;;;22.33;4.47;;;;;;;4.17;100.00;100362.91;7394403;19;20422;-37
2023/04/25 02:43:59;;;;;;;27.07;3.60;;;;;;;4.16;100.00;100371.38;7396294;19;20531;-37
2023/04/25 02:46:29;;;;;;;19.97;4.50;;;;;;;4.11;100.00;100365.09;7393800;19;20427;-36
2023/04/25 02:49:07;;;;;;;14.20;3.50;;;;;;;4.13;100.00;100371.19;7398016;19;20415;-37
2023/04/25 02:51:40;;;;;;;20.27;3.70;;;;;;;4.11;100.00;100371.91;7396566;19;20427;-36
2023/04/25 02:54:09;;;;;;;20.67;3.87;;;;;;;4.04;100.00;100375.72;7399100;19;20455;-36
2023/04/25 02:56:39;;;;;;;13.97;3.50;;;;;;;4.03;100.00;100371.41;7400979;19;20443;-35
2023/04/25 02:59:09;;;;;;;18.97;3.93;;;;;;;4.01;100.00;100375.56;7394847;19;20426;-34
2023/04/25 03:01:38;;;;;;;20.57;4.00;;;;;;;4.01;100.00;100367.88;7395820;19;20823;-36
2023/04/25 03:04:09;;;;;;;29.67;5.33;;;;;;;4.03;100.00;100368.84;7395224;19;20434;-35
2023/04/25 03:06:41;;;;;;;18.13;4.00;;;;;;;4.00;100.00;100373.78;7396416;19;20411;-37
2023/04/25 03:09:10;;;;;;;18.80;3.70;;;;;;;3.94;100.00;100375.97;7394713;19;20388;-35
2023/04/25 03:11:41;;;;;;;16.53;3.00;;;;;;;3.92;100.00;100371.66;7395273;19;20398;-35
2023/04/25 03:14:10;;;;;;;10.23;3.10;;;;;;;3.88;100.00;100368.78;7394888;19;20463;-35
2023/04/25 03:16:41;;;;;;;15.83;3.07;;;;;;;3.80;100.00;100375.97;7395234;19;20418;-34
2023/04/25 03:19:11;;;;;;;21.53;3.90;;;;;;;3.73;100.00;100373.81;7393593;19;20395;-35
2023/04/25 03:21:43;;;;;;;15.70;3.27;;;;;;;3.70;100.00;100369.38;7395167;19;20423;-35
2023/04/25 03:24:13;;;;;;;21.53;3.40;;;;;;;3.64;100.00;100369.91;7391105;19;20987;-35
2023/04/25 03:26:45;;;;;;;24.33;3.87;;;;;;;3.58;100.00;100374.59;7395828;19;20398;-35
2023/04/25 03:29:15;;;;;;;17.60;3.63;;;;;;;3.50;100.00;100378.34;7393002;19;20751;-35
2023/04/25 03:31:45;;;;;;;20.60;3.37;;;;;;;3.48;100.00;100378.22;7392518;19;20396;-35
2023/04/25 03:34:15;;;;;;;17.20;4.30;;;;;;;3.40;100.00;100383.63;7390228;19;20452;-35
2023/04/25 03:36:47;;;;;;;13.77;3.80;;;;;;;3.30;100.00;100393.25;7395165;19;20411;-35
2023/04/25 03:39:16;;;;;;;18.00;3.73;;;;;;;3.31;100.00;100399.22;7394570;19;20420;-36
2023/04/25 03:41:46;;;;;;;18.93;4.10;;;;;;;3.22;100.00;100402.03;7393390;19;20388;-38
2023/04/25 03:44:16;;;;;;;13.20;3.50;;;;;;;3.18;100.00;100407.75;7389438;19;20432;-35
2023/04/25 03:46:45;;;;;;;21.10;3.63;;;;;;;3.13;100.00;100409.09;7393375;19;20398;-35
2023/04/25 03:49:15;;;;;;;11.47;3.07;;;;;;;3.13;100.00;100416.75;7393844;19;20931;-35
2023/04/25 03:51:50;;;;;;;17.20;3.47;;;;;;;3.08;100.00;100430.06;7393366;19;20395;-36
2023/04/25 03:54:20;;;;;;;19.40;3.00;;;;;;;3.05;100.00;100429.88;7392059;19;20803;-36
2023/04/25 03:56:49;;;;;;;20.47;2.73;;;;;;;3.07;100.00;100440.16;7395531;19;20380;-35
2023/04/25 03:59:19;;;;;;;20.97;3.93;;;;;;;3.06;100.00;100436.72;7387269;19;20388;-35
2023/04/25 04:01:48;;;;;;;22.87;4.47;;;;;;;3.08;100.00;100444.50;7392218;19;20424;-35
2023/04/25 04:04:18;;;;;;;14.23;3.03;;;;;;;3.04;100.00;100442.50;7390796;19;20439;-35
2023/04/25 04:06:50;;;;;;;18.73;3.43;;;;;;;3.06;100.00;100441.81;7394753;19;20379;-35
2023/04/25 04:09:20;;;;;;;13.20;2.60;;;;;;;3.04;100.00;100440.84;7390123;19;20477;-34
2023/04/25 04:11:50;;;;;;;21.00;3.70;;;;;;;3.06;100.00;100444.38;7391993;19;20386;-35
2023/04/25 04:14:20;;;;;;;16.80;3.53;;;;;;;3.08;100.00;100452.13;7389973;19;20986;-36
2023/04/25 04:16:49;;;;;;;20.27;3.60;;;;;;;3.05;100.00;100460.47;7394145;19;20881;-37
2023/04/25 04:19:19;;;;;;;24.40;4.37;;;;;;;3.01;100.00;100458.47;7389756;19;20749;-35
2023/04/25 04:21:51;;;;;;;12.50;2.97;;;;;;;2.97;100.00;100453.94;7391454;19;20404;-36
2023/04/25 04:24:20;;;;;;;10.70;2.83;;;;;;;3.00;100.00;100461.81;7387723;19;20794;-35
2023/04/25 04:26:51;;;;;;;12.53;2.87;;;;;;;3.01;100.00;100458.47;7391144;19;20410;-35
2023/04/25 04:29:23;;;;;;;14.63;3.67;;;;;;;3.08;100.00;100464.88;7386376;19;20396;-34
2023/04/25 04:31:53;;;;;;;14.20;2.70;;;;;;;3.09;100.00;100466.66;7390716;19;20416;-36
2023/04/25 04:34:24;;;;;;;21.00;2.53;;;;;;;3.09;100.00;100479.41;7388512;19;20816;-37
2023/04/25 04:36:56;;;;;;;17.30;4.13;;;;;;;3.10;100.00;100482.06;7391434;19;20383;-34
2023/04/25 04:39:26;;;;;;;20.43;3.00;;;;;;;3.10;100.00;100482.06;7389475;19;20432;-34
2023/04/25 04:41:56;;;;;;;13.00;3.30;;;;;;;3.17;100.00;100482.47;7390092;19;20483;-35
2023/04/25 04:44:25;;;;;;;18.37;2.70;;;;;;;3.17;100.00;100487.56;7388408;19;20771;-34
2023/04/25 04:46:55;;;;;;;13.03;2.50;;;;;;;3.20;100.00;100482.66;7390339;19;20398;-36
2023/04/25 04:49:24;;;;;;;11.40;2.50;;;;;;;3.21;100.00;100486.97;7387471;19;20398;-36
2023/04/25 04:51:57;;;;;;;15.10;2.90;;;;;;;3.23;100.00;100488.84;7396538;19;20399;-35
2023/04/25 04:54:28;;;;;;;17.97;2.57;;;;;;;3.22;100.00;100491.28;7388046;19;20478;-34
2023/04/25 04:56:59;;;;;;;13.97;2.90;;;;;;;3.25;100.00;100491.50;7392884;19;20392;-35
2023/04/25 04:59:29;;;;;;;10.37;2.20;;;;;;;3.26;100.00;100488.16;7387026;19;20416;-36
2023/04/25 05:01:59;;;;;;;15.57;2.43;;;;;;;3.28;100.00;100493.38;7388663;19;20417;-35
2023/04/25 05:04:29;;;;;;;16.30;2.40;;;;;;;3.23;100.00;100499.03;7386602;19;20431;-35
2023/04/25 05:07:01;;;;;;;8.90;2.17;;;;;;;3.27;100.00;100510.34;7389171;19;20395;-36
2023/04/25 05:09:31;;;;;;;11.97;2.63;;;;;;;3.26;100.00;100520.41;7389295;19;20387;-37
2023/04/25 05:12:01;;;;;;;8.77;2.63;;;;;;;3.28;100.00;100540.16;7384924;19;20943;-35
2023/04/25 05:14:31;;;;;;;16.07;2.53;;;;;;;3.17;100.00;100536.00;7391072;19;20475;-35
2023/04/25 05:17:00;;;;;;;22.23;3.87;;;;;;;3.15;100.00;100529.91;7394320;19;20404;-34
2023/04/25 05:19:30;;;;;;;9.40;2.53;;;;;;;3.17;100.00;100505.41;7393417;19;20428;-34
2023/04/25 05:22:02;;;;;;;12.00;2.43;;;;;;;3.14;100.00;100503.53;7395416;19;20399;-35
2023/04/25 05:24:33;;;;;;;15.20;2.17;;;;;;;3.14;100.00;100500.09;7387249;19;20456;-35
2023/04/25 05:27:02;;;;;;;9.80;2.03;;;;;;;3.12;100.00;100499.97;7395283;19;20407;-36
2023/04/25 05:29:32;;;;;;;12.80;2.60;;;;;;;3.18;100.00;100489.31;7390117;19;20423;-36
2023/04/25 05:32:01;;;;;;;12.13;2.40;;;;;;;3.14;100.00;100493.34;7393040;19;20399;-34
2023/04/25 05:34:31;;;;;;;12.40;3.10;;;;;;;3.26;100.00;100484.72;7389521;19;20444;-35
2023/04/25 05:37:03;;;;;;;8.40;2.03;;;;;;;3.28;100.00;100488.28;7395260;19;20411;-36
2023/04/25 05:39:32;;;;;;;10.70;2.80;;;;;;;3.40;100.00;100488.19;7390205;19;20431;-36
2023/04/25 05:42:03;;;;;;;8.50;2.30;;;;;;;3.50;100.00;100475.28;7393140;19;20412;-35
2023/04/25 05:44:34;;;;;;;7.77;1.87;;;;;;;3.56;100.00;100478.25;7390616;19;20448;-36
2023/04/25 05:47:04;;;;;;;17.27;3.10;;;;;;;3.64;100.00;100486.41;7393205;19;20440;-36
2023/04/25 05:49:34;;;;;;;9.90;2.33;;;;;;;3.72;100.00;100490.31;7388204;19;20497;-35
2023/04/25 05:52:06;;;;;;;18.10;2.80;;;;;;;3.87;100.00;100500.66;7392397;19;20943;-35
2023/04/25 05:54:36;;;;;;;16.30;3.00;;;;;;;3.95;100.00;100497.72;7388760;19;20889;-36
2023/04/25 05:57:06;;;;;;;10.83;2.80;;;;;;;3.97;100.00;100496.13;7393460;19;20764;-36
2023/04/25 05:59:35;;;;;;;7.80;2.43;;;;;;;3.94;100.00;100485.72;7393907;19;20923;-35
2023/04/25 06:02:06;;;;;;;13.90;2.60;;;;;;;3.99;100.00;100476.72;7402096;19;20391;-35
2023/04/25 06:04:36;;;;;;;11.13;2.10;;;;;;;3.96;100.00;100484.16;7393842;19;20499;-34
2023/04/25 06:07:08;;;;;;;7.30;1.90;;;;;;;3.89;100.00;100488.84;7399696;19;20410;-35
2023/04/25 06:09:38;;;;;;;10.90;3.27;;;;;;;3.99;100.00;100486.91;7394642;19;20439;-34
2023/04/25 06:12:08;;;;;;;12.83;1.70;;;;;;;3.97;100.00;100488.47;7400991;19;20403;-36
2023/04/25 06:14:38;;;;;;;15.27;2.73;;;;;;;4.08;100.00;100490.03;7393934;19;20455;-36
2023/04/25 06:17:08;;;;;;;7.90;2.40;;;;;;;4.11;100.00;100492.78;7399132;19;20407;-35
2023/04/25 06:19:38;;;;;;;6.57;2.77;;;;;;;4.18;100.00;100492.41;7394689;19;20411;-35
2023/04/25 06:22:11;;;;;;;11.30;2.50;;;;;;;4.24;100.00;100498.66;7398538;19;20407;-35
2023/04/25 06:24:40;;;;;;;20.13;3.13;;;;;;;4.32;100.00;100505.16;7394313;19;20519;-37
2023/04/25 06:27:12;;;;;;;9.70;2.70;;;;;;;4.43;100.00;100503.28;7399034;19;20407;-35
2023/04/25 06:29:45;;;;;;;13.13;2.97;;;;;;;4.46;100.00;100506.91;7395958;19;20415;-35
2023/04/25 06:32:14;;;;;;;12.47;3.17;;;;;;;4.51;100.00;100513.97;7397871;19;20403;-36
2023/04/25 06:34:44;;;;;;;15.00;3.30;;;;;;;4.48;100.00;100529.09;7392290;19;20407;-36
2023/04/25 06:37:19;;;;;;;14.40;3.53;;;;;;;4.51;100.00;100545.50;7396016;19;20945;-39
2023/04/25 06:39:48;;;;;;;12.43;2.47;;;;;;;4.52;100.00;100549.81;7389883;19;20451;-35
2023/04/25 06:42:18;;;;;;;17.03;3.80;;;;;;;4.62;100.00;100547.88;7398210;19;20419;-35
2023/04/25 06:44:47;;;;;;;17.40;3.80;;;;;;;4.68;100.00;100551.66;7394175;19;20411;-35
2023/04/25 06:47:17;;;;;;;10.37;2.20;;;;;;;4.59;100.00;100567.34;7398007;19;20410;-36
2023/04/25 06:49:47;;;;;;;20.93;2.53;;;;;;;4.63;100.00;100573.53;7394966;19;20411;-36
2023/04/25 06:52:20;;;;;;;18.77;3.00;;;;;;;4.71;100.00;100572.31;7397365;19;20407;-36
2023/04/25 06:54:49;;;;;;;10.43;2.30;;;;;;;4.51;100.00;100572.75;7392957;19;20430;-35
2023/04/25 06:57:19;;;;;;;11.07;3.37;;;;;;;4.54;100.00;100575.47;7397621;19;20415;-37
2023/04/25 06:59:48;;;;;;;27.03;4.40;;;;;;;4.50;100.00;100559.06;7393225;19;20498;-40
2023/04/25 07:02:18;;;;;;;17.83;3.60;;;;;;;4.46;100.00;100542.66;7396074;19;20400;-36
2023/04/25 07:04:48;;;;;;;14.87;3.20;;;;;;;4.30;100.00;100528.03;7390280;19;20443;-36
2023/04/25 07:07:20;;;;;;;16.13;3.37;;;;;;;4.23;100.00;100520.78;7397049;19;21016;-35
2023/04/25 07:09:49;;;;;;;17.07;3.00;;;;;;;4.16;100.00;100511.84;7390623;19;20411;-36
2023/04/25 07:12:19;;;;;;;18.93;3.30;;;;;;;3.80;100.00;100534.22;7396463;19;20411;-35
2023/04/25 07:14:48;;;;;;;14.90;3.13;;;;;;;3.79;100.00;100504.34;7393890;19;20438;-36
2023/04/25 07:17:18;;;;;;;8.53;2.80;;;;;;;3.70;100.00;100493.56;7396429;19;20408;-35
2023/04/25 07:19:48;;;;;;;9.67;2.00;;;;;;;3.64;100.00;100489.81;7393247;19;20847;-35
2023/04/25 07:22:20;;;;;;;12.67;2.70;;;;;;;3.61;100.00;100481.09;7396557;19;20443;-36
2023/04/25 07:24:49;;;;;;;15.67;1.93;;;;;;;3.65;100.00;100473.72;7395049;19;20403;-35
2023/04/25 07:27:19;;;;;;;8.20;1.97;;;;;;;3.71;100.00;100473.25;7397303;19;20415;-36
2023/04/25 07:29:48;;;;;;;12.63;2.20;;;;;;;3.70;100.00;100479.13;7392662;19;20415;-37
2023/04/25 07:32:18;;;;;;;13.00;2.60;;;;;;;3.72;100.00;100474.13;7395796;19;20407;-41
2023/04/25 07:34:48;;;;;;;13.70;2.60;;;;;;;3.80;100.00;100477.19;7392374;19;20439;-35
2023/04/25 07:37:20;;;;;;;10.47;2.50;;;;;;;3.85;100.00;100476.66;7397226;19;20403;-35
2023/04/25 07:39:50;;;;;;;8.57;2.00;;;;;;;4.05;100.00;100488.16;7393234;19;20435;-36
2023/04/25 07:42:21;;;;;;;14.90;2.13;;;;;;;4.14;100.00;100487.88;7397193;19;20763;-36
2023/04/25 07:44:51;;;;;;;15.20;2.60;;;;;;;4.18;100.00;100483.84;7392828;19;20394;-36
2023/04/25 07:47:21;;;;;;;7.80;1.80;;;;;;;4.27;100.00;100487.00;7397707;19;20757;-36
2023/04/25 07:49:51;;;;;;;9.90;2.20;;;;;;;4.45;100.00;100487.25;7394069;19;20418;-36
2023/04/25 07:52:23;;;;;;;24.43;3.17;;;;;;;4.63;100.00;100491.75;7396263;19;20407;-37
2023/04/25 07:54:53;;;;;;;10.53;2.73;;;;;;;4.93;100.00;100490.94;7392214;19;20902;-35
2023/04/25 07:57:24;;;;;;;11.00;2.30;;;;;;;4.98;100.00;100498.09;7397147;19;20419;-37
2023/04/25 07:59:53;;;;;;;45.97;15.47;;;;;;;5.12;100.00;100505.72;7392427;19;20455;-37
2023/04/25 08:02:23;;;;;;;14.03;2.43;;;;;;;5.11;100.00;100516.72;7395825;19;20778;-36
2023/04/25 08:04:52;;;;;;;24.33;3.50;;;;;;;5.09;100.00;100528.56;7391534;19;21022;-37
2023/04/25 08:07:26;;;;;;;11.20;2.40;;;;;;;5.03;100.00;100533.31;7396863;19;20407;-36
2023/04/25 08:09:56;;;;;;;24.93;2.70;;;;;;;4.72;100.00;100556.19;7391918;19;20410;-36
2023/04/25 08:12:26;;;;;;;15.03;2.53;;;;;;;4.21;100.00;100590.44;7396036;19;20412;-35
2023/04/25 08:14:55;;;;;;;7.90;1.57;;;;;;;3.66;100.00;100579.25;7391965;19;21043;-36
2023/04/25 08:17:25;;;;;;;4.93;1.00;;;;;;;3.48;100.00;100558.47;7395300;19;20935;-36
2023/04/25 08:19:55;;;;;;;11.30;1.90;;;;;;;3.38;100.00;100555.31;7393269;19;20410;-36
2023/04/25 08:22:27;;;;;;;11.43;1.90;;;;;;;3.35;100.00;100544.88;7396967;19;20407;-36
2023/04/25 08:24:59;;;;;;;7.80;1.53;;;;;;;3.35;100.00;100539.78;7391636;19;20410;-35
2023/04/25 08:27:29;;;;;;;5.17;1.33;;;;;;;3.45;100.00;100525.09;7395955;19;20422;-36
2023/04/25 08:29:59;;;;;;;5.83;1.30;;;;;;;3.48;100.00;100526.19;7393918;19;20409;-37
2023/04/25 08:32:28;;;;;;;7.63;1.60;;;;;;;3.52;100.00;100519.63;7397298;19;20419;-37
2023/04/25 08:34:59;;;;;;;7.90;1.50;;;;;;;3.78;100.00;100510.25;7392791;19;20492;-36
2023/04/25 08:37:31;;;;;;;5.40;1.63;;;;;;;4.01;100.00;100509.19;7395701;19;20427;-36
2023/04/25 08:40:01;;;;;;;11.80;2.40;;;;;;;4.30;100.00;100517.81;7391070;19;20403;-36
2023/04/25 08:42:31;;;;;;;17.93;2.50;;;;;;;4.56;100.00;100512.59;7395550;19;20459;-37
2023/04/25 08:45:01;;;;;;;11.13;3.27;;;;;;;4.79;100.00;100521.69;7394817;19;20439;-37
2023/04/25 08:47:36;;;;;;;8.37;2.17;;;;;;;5.20;100.00;100511.28;7395691;19;20417;-36
2023/04/25 08:50:07;;;;;;;26.20;4.20;;;;;;;5.51;100.00;100518.22;7388524;19;20939;-36
2023/04/25 08:52:46;;;;;;;25.07;6.03;;;;;;;5.68;100.00;100521.75;7395109;19;20419;-36
2023/04/25 08:55:16;;;;;;;13.60;2.83;;;;;;;5.64;100.00;100541.16;7390776;19;20423;-37
2023/04/25 08:57:46;;;;;;;17.83;3.47;;;;;;;5.32;100.00;100557.22;7393169;19;20428;-35
2023/04/25 09:00:16;;;;;;;11.93;2.50;;;;;;;5.38;100.00;100572.91;7390028;19;20972;-36
2023/04/25 09:02:46;;;;;;;17.00;2.90;;;;;;;5.38;100.00;100567.78;7393257;19;20407;-39
2023/04/25 09:05:16;;;;;;;15.43;3.40;;;;;;;5.48;100.00;100592.28;7390226;19;20407;-37
2023/04/25 09:07:51;;;;;;;13.10;2.20;;;;;;;5.56;100.00;100598.72;7389512;19;20431;-37
2023/04/25 09:10:22;;;;;;;11.10;2.30;;;;;;;5.62;100.00;100611.00;7389155;19;20937;-36
2023/04/25 09:13:04;;;;;;;6.67;1.80;;;;;;;5.53;100.00;100634.34;7392821;19;20416;-36
2023/04/25 09:15:35;;;;;;;7.47;1.20;;;;;;;5.48;100.00;100667.34;7388888;19;20447;-37
2023/04/25 09:18:05;;;;;;;6.60;1.77;;;;;;;5.58;100.00;100696.09;7391289;19;20429;-37
2023/04/25 09:20:34;;;;;;;14.73;2.20;;;;;;;5.64;100.00;100719.50;7389541;19;20451;-37
2023/04/25 09:23:22;;;;;;;7.53;1.60;;;;;;;5.79;100.00;100740.91;7392796;19;20686;-38
2023/04/25 09:25:53;;;;;;;10.97;2.60;;;;;;;5.92;100.00;100752.78;7389526;19;20423;-39
2023/04/25 09:28:27;;;;;;;11.67;2.20;;;;;;;6.10;100.00;100756.38;7391937;19;20423;-37
2023/04/25 09:30:59;;;;;;;10.70;2.57;;;;;;;6.45;100.00;100770.38;7389548;19;20458;-36
2023/04/25 09:33:31;;;;;;;11.87;2.10;;;;;;;6.81;100.00;100765.63;7390460;19;20474;-36
2023/04/25 09:36:05;;;;;;;15.63;2.20;;;;;;;6.77;100.00;100779.06;7391417;19;20447;-36
2023/04/25 09:38:43;;;;;;;11.83;1.50;;;;;;;6.41;100.00;100788.97;7392549;19;20410;-37
2023/04/25 09:41:14;;;;;;;6.80;1.00;;;;;;;5.81;100.00;100825.50;7388309;19;20454;-38
2023/04/25 09:43:47;;;;;;;13.00;1.97;;;;;;;4.99;100.00;100793.06;7390281;19;20439;-36
2023/04/25 09:46:20;;;;;;;7.00;1.67;;;;;;;4.87;100.00;100757.34;7383668;19;20835;-37
2023/04/25 09:48:53;;;;;;;12.93;1.60;;;;;;;4.86;100.00;100741.13;7392873;19;20411;-37
2023/04/25 09:51:28;;;;;;;13.03;1.33;;;;;;;4.96;100.00;100705.91;7389775;19;20439;-36
2023/04/25 09:54:00;;;;;;;13.10;1.50;;;;;;;5.08;100.00;100716.06;7392457;19;20451;-36
2023/04/25 09:56:32;;;;;;;19.60;6.30;;;;;;;5.24;100.00;100712.78;7391940;19;20443;-36
2023/04/25 09:59:02;;;;;;;11.13;1.87;;;;;;;5.56;100.00;100711.34;7394146;19;20411;-37
2023/04/25 10:01:32;;;;;;;11.33;2.30;;;;;;;5.85;100.00;100713.91;7389610;19;20990;-36
2023/04/25 10:04:03;;;;;;;10.13;1.97;;;;;;;6.34;100.00;100715.94;7393702;19;20451;-36
2023/04/25 10:06:34;;;;;;;12.10;2.00;;;;;;;6.57;100.00;100727.53;7389781;19;20459;-37
2023/04/25 10:09:08;;;;;;;6.30;1.67;;;;;;;6.53;100.00;100732.41;7393161;19;20412;-36
2023/04/25 10:11:37;;;;;;;8.03;1.27;;;;;;;6.57;100.00;100781.34;7390814;19;20470;-43
2023/04/25 10:14:07;;;;;;;4.93;1.43;;;;;;;6.90;100.00;100796.06;7393239;19;20463;-38
2023/04/25 10:16:37;;;;;;;5.93;1.00;;;;;;;6.81;100.00;100822.06;7390054;19;20833;-37
2023/04/25 10:19:07;;;;;;;5.43;1.37;;;;;;;6.59;100.00;100843.00;7392123;19;20632;-38
2023/04/25 10:21:40;;;;;;;9.50;1.80;;;;;;;6.39;100.00;100859.72;7389792;19;20450;-36
2023/04/25 10:24:12;;;;;;;8.80;1.33;;;;;;;6.46;100.00;100851.66;7392322;19;20462;-36
2023/04/25 10:26:42;;;;;;;6.10;1.40;;;;;;;6.64;100.00;100863.78;7392535;19;20447;-39
2023/04/25 10:29:12;;;;;;;9.40;1.57;;;;;;;6.72;100.00;100858.31;7391117;19;20419;-37
2023/04/25 10:31:48;;;;;;;10.53;1.57;;;;;;;6.84;100.00;100868.41;7391774;19;20459;-38
2023/04/25 10:34:18;;;;;;;6.23;1.40;;;;;;;6.71;100.00;100860.75;7391022;19;20951;-37
2023/04/25 10:36:53;;;;;;;16.00;1.33;;;;;;;7.03;100.00;100838.69;7390990;19;20817;-37
2023/04/25 10:39:30;;;;;;;14.67;1.77;;;;;;;7.12;100.00;100843.44;7388442;19;20403;-36
2023/04/25 10:42:00;;;;;;;9.50;2.33;;;;;;;7.25;100.00;100866.47;7393382;19;20413;-37
2023/04/25 10:44:31;;;;;;;8.00;1.30;;;;;;;7.15;100.00;100829.13;7391843;19;20994;-36
2023/04/25 10:47:02;;;;;;;8.47;1.43;;;;;;;6.84;100.00;100862.38;7396610;19;20417;-38
2023/04/25 10:49:36;;;;;;;10.43;1.33;;;;;;;6.83;100.00;100846.09;7397219;19;20438;-37
2023/04/25 10:52:17;;;;;;;7.50;1.10;;;;;;;6.67;100.00;100844.31;7396273;19;20423;-36
2023/04/25 10:54:53;;;;;;;9.87;1.23;;;;;;;6.61;100.00;100860.25;7394339;19;20414;-37
2023/04/25 10:57:35;;;;;;;8.00;1.37;;;;;;;6.69;100.00;100882.88;7397486;19;20411;-37
2023/04/25 11:00:10;;;;;;;10.87;1.80;;;;;;;6.75;100.00;100861.06;7391906;19;20439;-40
2023/04/25 11:02:40;;;;;;;9.60;1.53;;;;;;;6.58;100.00;100880.59;7398516;19;20431;-36
2023/04/25 11:05:10;;;;;;;10.70;1.90;;;;;;;6.41;100.00;100871.84;7391231;19;20458;-37
2023/04/25 11:07:50;;;;;;;9.60;1.97;;;;;;;6.16;100.00;100872.06;7397030;19;20518;-37
2023/04/25 11:10:36;;;;;;;3.40;1.00;;;;;;;5.81;100.00;100877.59;7393404;19;21676;-36
2023/04/25 11:13:07;;;;;;;4.60;1.00;;;;;;;5.68;100.00;100885.28;7400316;19;20430;-36
2023/04/25 11:15:36;;;;;;;4.27;1.00;;;;;;;5.81;100.00;100887.81;7394535;19;20770;-36
2023/04/25 11:18:06;;;;;;;3.90;1.43;;;;;;;5.92;100.00;100877.38;7397652;19;20420;-36
2023/04/25 11:20:38;;;;;;;4.27;0.93;;;;;;;5.99;100.00;100886.34;7396729;19;20439;-36
2023/04/25 11:23:08;;;;;;;7.03;1.20;;;;;;;6.02;100.00;100886.53;7397703;19;20802;-38
2023/04/25 11:25:40;;;;;;;4.87;0.97;;;;;;;6.01;100.00;100880.50;7394904;19;20971;-35
2023/04/25 11:28:10;;;;;;;7.07;0.90;;;;;;;6.26;100.00;100868.38;7397326;19;20411;-35
2023/04/25 11:30:40;;;;;;;5.70;1.10;;;;;;;6.46;100.00;100870.47;7391997;19;21002;-36
2023/04/25 11:33:15;;;;;;;6.80;1.70;;;;;;;6.62;100.00;100872.25;7396442;19;20423;-37
2023/04/25 11:35:44;;;;;;;6.50;1.40;;;;;;;6.84;100.00;100868.41;7393055;19;20442;-36